sensor_id;sensor_type;location;lat;lon;timestamp;P1;durP1;ratioP1;P2;durP2;ratioP2
75620;SDS011;64574;48.506;-2.750;2023-05-08T00:01:37;9.85;;;3.40;;
75620;SDS011;64574;48.506;-2.750;2023-05-08T00:04:02;8.82;;;3.38;;
75620;SDS011;64574;48.506;-2.750;2023-05-08T00:06:28;9.05;;;3.05;;
75620;SDS011;64574;48.506;-2.750;2023-05-08T00:08:54;8.27;;;3.67;;
75620;SDS011;64574;48.506;-2.750;2023-05-08T00:11:19;11.85;;;3.72;;
75620;SDS011;64574;48.506;-2.750;2023-05-08T00:13:45;9.98;;;3.40;;
75620;SDS011;64574;48.506;-2.750;2023-05-08T00:16:11;10.93;;;4.05;;
75620;SDS011;64574;48.506;-2.750;2023-05-08T00:18:37;11.13;;;4.00;;
75620;SDS011;64574;48.506;-2.750;2023-05-08T00:21:03;8.40;;;3.47;;
75620;SDS011;64574;48.506;-2.750;2023-05-08T00:23:29;9.02;;;4.03;;
75620;SDS011;64574;48.506;-2.750;2023-05-08T00:25:55;10.68;;;3.83;;
75620;SDS011;64574;48.506;-2.750;2023-05-08T00:28:21;9.23;;;3.85;;
75620;SDS011;64574;48.506;-2.750;2023-05-08T00:30:47;13.20;;;3.97;;
75620;SDS011;64574;48.506;-2.750;2023-05-08T00:33:13;11.20;;;4.20;;
75620;SDS011;64574;48.506;-2.750;2023-05-08T00:35:39;9.43;;;3.60;;
75620;SDS011;64574;48.506;-2.750;2023-05-08T00:38:07;8.30;;;3.40;;
75620;SDS011;64574;48.506;-2.750;2023-05-08T00:40:33;8.80;;;3.55;;
75620;SDS011;64574;48.506;-2.750;2023-05-08T00:42:59;7.38;;;3.83;;
75620;SDS011;64574;48.506;-2.750;2023-05-08T00:45:26;10.55;;;4.00;;
75620;SDS011;64574;48.506;-2.750;2023-05-08T00:47:58;8.85;;;3.60;;
75620;SDS011;64574;48.506;-2.750;2023-05-08T00:50:24;10.52;;;3.80;;
75620;SDS011;64574;48.506;-2.750;2023-05-08T00:52:51;8.77;;;3.50;;
75620;SDS011;64574;48.506;-2.750;2023-05-08T00:55:16;9.82;;;4.03;;
75620;SDS011;64574;48.506;-2.750;2023-05-08T00:57:44;8.40;;;3.72;;
75620;SDS011;64574;48.506;-2.750;2023-05-08T01:00:11;9.75;;;3.83;;
75620;SDS011;64574;48.506;-2.750;2023-05-08T01:02:37;8.32;;;3.50;;
75620;SDS011;64574;48.506;-2.750;2023-05-08T01:05:04;6.90;;;3.72;;
75620;SDS011;64574;48.506;-2.750;2023-05-08T01:07:31;7.47;;;3.30;;
75620;SDS011;64574;48.506;-2.750;2023-05-08T01:09:56;6.57;;;3.30;;
75620;SDS011;64574;48.506;-2.750;2023-05-08T01:12:28;7.25;;;3.20;;
75620;SDS011;64574;48.506;-2.750;2023-05-08T01:20:18;5.65;;;2.90;;
75620;SDS011;64574;48.506;-2.750;2023-05-08T01:28:37;6.63;;;3.17;;
75620;SDS011;64574;48.506;-2.750;2023-05-08T01:31:19;6.05;;;3.15;;
75620;SDS011;64574;48.506;-2.750;2023-05-08T01:34:07;6.75;;;2.67;;
75620;SDS011;64574;48.506;-2.750;2023-05-08T01:36:40;7.72;;;2.90;;
75620;SDS011;64574;48.506;-2.750;2023-05-08T01:42:07;6.50;;;3.22;;
75620;SDS011;64574;48.506;-2.750;2023-05-08T01:44:34;4.22;;;2.70;;
75620;SDS011;64574;48.506;-2.750;2023-05-08T01:47:05;8.48;;;3.38;;
75620;SDS011;64574;48.506;-2.750;2023-05-08T01:49:35;7.88;;;3.35;;
75620;SDS011;64574;48.506;-2.750;2023-05-08T01:52:31;5.13;;;3.00;;
75620;SDS011;64574;48.506;-2.750;2023-05-08T01:55:03;5.85;;;3.00;;
75620;SDS011;64574;48.506;-2.750;2023-05-08T01:57:33;6.95;;;3.05;;
75620;SDS011;64574;48.506;-2.750;2023-05-08T02:00:01;6.50;;;2.92;;
75620;SDS011;64574;48.506;-2.750;2023-05-08T02:02:28;7.32;;;2.70;;
75620;SDS011;64574;48.506;-2.750;2023-05-08T02:04:56;5.93;;;2.85;;
75620;SDS011;64574;48.506;-2.750;2023-05-08T02:07:23;6.13;;;2.90;;
75620;SDS011;64574;48.506;-2.750;2023-05-08T02:09:49;5.85;;;2.95;;
75620;SDS011;64574;48.506;-2.750;2023-05-08T02:12:16;7.97;;;2.88;;
75620;SDS011;64574;48.506;-2.750;2023-05-08T02:14:42;7.05;;;3.28;;
75620;SDS011;64574;48.506;-2.750;2023-05-08T02:17:11;7.10;;;3.33;;
75620;SDS011;64574;48.506;-2.750;2023-05-08T02:19:40;6.78;;;2.95;;
75620;SDS011;64574;48.506;-2.750;2023-05-08T02:22:08;7.20;;;3.00;;
75620;SDS011;64574;48.506;-2.750;2023-05-08T02:24:34;5.05;;;3.17;;
75620;SDS011;64574;48.506;-2.750;2023-05-08T02:27:02;6.97;;;3.00;;
75620;SDS011;64574;48.506;-2.750;2023-05-08T02:29:29;5.40;;;2.50;;
75620;SDS011;64574;48.506;-2.750;2023-05-08T02:31:56;6.55;;;2.97;;
75620;SDS011;64574;48.506;-2.750;2023-05-08T02:34:25;7.28;;;3.05;;
75620;SDS011;64574;48.506;-2.750;2023-05-08T02:36:52;6.25;;;3.00;;
75620;SDS011;64574;48.506;-2.750;2023-05-08T02:39:18;7.15;;;3.40;;
75620;SDS011;64574;48.506;-2.750;2023-05-08T02:41:49;6.05;;;3.33;;
75620;SDS011;64574;48.506;-2.750;2023-05-08T02:44:15;5.75;;;3.35;;
75620;SDS011;64574;48.506;-2.750;2023-05-08T02:46:48;5.93;;;2.75;;
75620;SDS011;64574;48.506;-2.750;2023-05-08T02:52:13;4.40;;;2.38;;
75620;SDS011;64574;48.506;-2.750;2023-05-08T02:54:45;6.10;;;3.08;;
75620;SDS011;64574;48.506;-2.750;2023-05-08T03:00:04;5.70;;;2.40;;
75620;SDS011;64574;48.506;-2.750;2023-05-08T03:03:00;4.18;;;2.78;;
75620;SDS011;64574;48.506;-2.750;2023-05-08T03:05:32;5.28;;;2.40;;
75620;SDS011;64574;48.506;-2.750;2023-05-08T03:08:43;5.05;;;2.83;;
75620;SDS011;64574;48.506;-2.750;2023-05-08T03:10:53;6.18;;;2.85;;
75620;SDS011;64574;48.506;-2.750;2023-05-08T03:13:21;5.97;;;2.97;;
75620;SDS011;64574;48.506;-2.750;2023-05-08T03:15:50;5.60;;;2.92;;
75620;SDS011;64574;48.506;-2.750;2023-05-08T03:18:20;6.22;;;2.50;;
75620;SDS011;64574;48.506;-2.750;2023-05-08T03:20:51;5.60;;;2.47;;
75620;SDS011;64574;48.506;-2.750;2023-05-08T03:23:19;8.02;;;2.80;;
75620;SDS011;64574;48.506;-2.750;2023-05-08T03:25:47;4.97;;;2.45;;
75620;SDS011;64574;48.506;-2.750;2023-05-08T03:28:12;5.05;;;2.60;;
75620;SDS011;64574;48.506;-2.750;2023-05-08T03:30:39;5.65;;;3.03;;
75620;SDS011;64574;48.506;-2.750;2023-05-08T03:33:06;5.70;;;2.95;;
75620;SDS011;64574;48.506;-2.750;2023-05-08T03:35:35;5.55;;;2.75;;
75620;SDS011;64574;48.506;-2.750;2023-05-08T03:38:02;5.35;;;2.63;;
75620;SDS011;64574;48.506;-2.750;2023-05-08T03:40:28;4.43;;;2.45;;
75620;SDS011;64574;48.506;-2.750;2023-05-08T03:42:54;4.55;;;2.20;;
75620;SDS011;64574;48.506;-2.750;2023-05-08T03:45:22;5.03;;;2.60;;
75620;SDS011;64574;48.506;-2.750;2023-05-08T03:47:49;6.00;;;2.60;;
75620;SDS011;64574;48.506;-2.750;2023-05-08T03:50:17;4.32;;;2.72;;
75620;SDS011;64574;48.506;-2.750;2023-05-08T03:52:44;5.15;;;2.83;;
75620;SDS011;64574;48.506;-2.750;2023-05-08T03:55:10;5.30;;;2.53;;
75620;SDS011;64574;48.506;-2.750;2023-05-08T03:57:39;4.80;;;2.30;;
75620;SDS011;64574;48.506;-2.750;2023-05-08T04:00:34;4.28;;;2.45;;
75620;SDS011;64574;48.506;-2.750;2023-05-08T04:03:21;4.63;;;2.50;;
75620;SDS011;64574;48.506;-2.750;2023-05-08T04:05:58;8.10;;;2.80;;
75620;SDS011;64574;48.506;-2.750;2023-05-08T04:08:40;4.60;;;2.78;;
75620;SDS011;64574;48.506;-2.750;2023-05-08T04:13:56;5.32;;;2.63;;
75620;SDS011;64574;48.506;-2.750;2023-05-08T04:16:27;12.93;;;3.05;;
75620;SDS011;64574;48.506;-2.750;2023-05-08T04:19:02;5.22;;;2.80;;
75620;SDS011;64574;48.506;-2.750;2023-05-08T04:21:34;7.15;;;3.78;;
75620;SDS011;64574;48.506;-2.750;2023-05-08T04:24:03;6.03;;;2.83;;
75620;SDS011;64574;48.506;-2.750;2023-05-08T04:26:31;4.40;;;2.47;;
75620;SDS011;64574;48.506;-2.750;2023-05-08T04:28:57;5.07;;;2.63;;
75620;SDS011;64574;48.506;-2.750;2023-05-08T04:31:24;4.90;;;2.60;;
75620;SDS011;64574;48.506;-2.750;2023-05-08T04:33:50;6.85;;;2.42;;
75620;SDS011;64574;48.506;-2.750;2023-05-08T04:36:16;4.82;;;2.35;;
75620;SDS011;64574;48.506;-2.750;2023-05-08T04:38:42;4.03;;;2.30;;
75620;SDS011;64574;48.506;-2.750;2023-05-08T04:41:08;3.78;;;1.88;;
75620;SDS011;64574;48.506;-2.750;2023-05-08T04:43:34;4.78;;;2.20;;
75620;SDS011;64574;48.506;-2.750;2023-05-08T04:46:00;5.93;;;2.60;;
75620;SDS011;64574;48.506;-2.750;2023-05-08T04:48:26;5.57;;;2.35;;
75620;SDS011;64574;48.506;-2.750;2023-05-08T04:50:51;7.97;;;2.30;;
75620;SDS011;64574;48.506;-2.750;2023-05-08T04:53:17;5.55;;;2.33;;
75620;SDS011;64574;48.506;-2.750;2023-05-08T04:55:42;5.72;;;2.40;;
75620;SDS011;64574;48.506;-2.750;2023-05-08T04:58:11;7.68;;;2.60;;
75620;SDS011;64574;48.506;-2.750;2023-05-08T05:00:37;7.82;;;2.95;;
75620;SDS011;64574;48.506;-2.750;2023-05-08T05:03:02;4.60;;;2.35;;
75620;SDS011;64574;48.506;-2.750;2023-05-08T05:05:28;3.60;;;2.15;;
75620;SDS011;64574;48.506;-2.750;2023-05-08T05:07:53;5.53;;;2.30;;
75620;SDS011;64574;48.506;-2.750;2023-05-08T05:10:19;5.47;;;2.63;;
75620;SDS011;64574;48.506;-2.750;2023-05-08T05:12:45;5.30;;;2.33;;
75620;SDS011;64574;48.506;-2.750;2023-05-08T05:15:10;4.80;;;2.58;;
75620;SDS011;64574;48.506;-2.750;2023-05-08T05:17:36;6.90;;;2.70;;
75620;SDS011;64574;48.506;-2.750;2023-05-08T05:20:02;4.88;;;2.75;;
75620;SDS011;64574;48.506;-2.750;2023-05-08T05:24:57;4.50;;;2.50;;
75620;SDS011;64574;48.506;-2.750;2023-05-08T05:27:22;5.50;;;2.72;;
75620;SDS011;64574;48.506;-2.750;2023-05-08T05:29:48;5.22;;;2.50;;
75620;SDS011;64574;48.506;-2.750;2023-05-08T05:32:14;5.55;;;2.70;;
75620;SDS011;64574;48.506;-2.750;2023-05-08T05:34:40;5.47;;;2.13;;
75620;SDS011;64574;48.506;-2.750;2023-05-08T05:37:06;6.63;;;2.75;;
75620;SDS011;64574;48.506;-2.750;2023-05-08T05:39:32;4.65;;;2.60;;
75620;SDS011;64574;48.506;-2.750;2023-05-08T05:41:57;5.20;;;2.35;;
75620;SDS011;64574;48.506;-2.750;2023-05-08T05:44:23;4.05;;;2.20;;
75620;SDS011;64574;48.506;-2.750;2023-05-08T05:46:48;4.85;;;2.05;;
75620;SDS011;64574;48.506;-2.750;2023-05-08T05:49:14;6.28;;;2.83;;
75620;SDS011;64574;48.506;-2.750;2023-05-08T05:51:40;6.97;;;2.90;;
75620;SDS011;64574;48.506;-2.750;2023-05-08T05:54:05;4.57;;;2.58;;
75620;SDS011;64574;48.506;-2.750;2023-05-08T05:56:31;5.38;;;2.30;;
75620;SDS011;64574;48.506;-2.750;2023-05-08T05:58:57;4.72;;;2.25;;
75620;SDS011;64574;48.506;-2.750;2023-05-08T06:01:23;5.32;;;2.38;;
75620;SDS011;64574;48.506;-2.750;2023-05-08T06:03:49;4.68;;;2.65;;
75620;SDS011;64574;48.506;-2.750;2023-05-08T06:06:14;4.10;;;2.20;;
75620;SDS011;64574;48.506;-2.750;2023-05-08T06:08:40;4.75;;;2.47;;
75620;SDS011;64574;48.506;-2.750;2023-05-08T06:11:05;5.28;;;2.15;;
75620;SDS011;64574;48.506;-2.750;2023-05-08T06:13:31;5.57;;;2.60;;
75620;SDS011;64574;48.506;-2.750;2023-05-08T06:15:57;4.78;;;2.60;;
75620;SDS011;64574;48.506;-2.750;2023-05-08T06:18:22;4.97;;;2.67;;
75620;SDS011;64574;48.506;-2.750;2023-05-08T06:20:48;7.70;;;2.72;;
75620;SDS011;64574;48.506;-2.750;2023-05-08T06:23:18;4.22;;;2.30;;
75620;SDS011;64574;48.506;-2.750;2023-05-08T06:25:44;5.95;;;2.35;;
75620;SDS011;64574;48.506;-2.750;2023-05-08T06:28:09;5.78;;;2.75;;
75620;SDS011;64574;48.506;-2.750;2023-05-08T06:30:35;6.15;;;3.13;;
75620;SDS011;64574;48.506;-2.750;2023-05-08T06:33:01;6.68;;;2.75;;
75620;SDS011;64574;48.506;-2.750;2023-05-08T06:35:26;5.80;;;2.67;;
75620;SDS011;64574;48.506;-2.750;2023-05-08T06:37:52;4.78;;;2.10;;
75620;SDS011;64574;48.506;-2.750;2023-05-08T06:40:17;4.68;;;2.38;;
75620;SDS011;64574;48.506;-2.750;2023-05-08T06:42:43;4.43;;;2.28;;
75620;SDS011;64574;48.506;-2.750;2023-05-08T06:45:08;3.97;;;1.98;;
75620;SDS011;64574;48.506;-2.750;2023-05-08T06:47:34;4.50;;;2.15;;
75620;SDS011;64574;48.506;-2.750;2023-05-08T06:50:00;4.57;;;2.00;;
75620;SDS011;64574;48.506;-2.750;2023-05-08T06:52:26;3.80;;;2.00;;
75620;SDS011;64574;48.506;-2.750;2023-05-08T06:54:51;3.58;;;2.08;;
75620;SDS011;64574;48.506;-2.750;2023-05-08T06:57:17;4.32;;;2.15;;
75620;SDS011;64574;48.506;-2.750;2023-05-08T06:59:42;4.63;;;1.80;;
75620;SDS011;64574;48.506;-2.750;2023-05-08T07:02:08;5.20;;;2.05;;
75620;SDS011;64574;48.506;-2.750;2023-05-08T07:04:35;3.35;;;1.90;;
75620;SDS011;64574;48.506;-2.750;2023-05-08T07:07:01;4.05;;;1.45;;
75620;SDS011;64574;48.506;-2.750;2023-05-08T07:09:27;2.40;;;1.20;;
75620;SDS011;64574;48.506;-2.750;2023-05-08T07:11:53;2.55;;;0.95;;
75620;SDS011;64574;48.506;-2.750;2023-05-08T07:14:19;1.67;;;0.85;;
75620;SDS011;64574;48.506;-2.750;2023-05-08T07:16:45;2.85;;;0.75;;
75620;SDS011;64574;48.506;-2.750;2023-05-08T07:19:11;2.17;;;0.75;;
75620;SDS011;64574;48.506;-2.750;2023-05-08T07:21:37;1.80;;;1.00;;
75620;SDS011;64574;48.506;-2.750;2023-05-08T07:24:03;2.53;;;1.10;;
75620;SDS011;64574;48.506;-2.750;2023-05-08T07:26:29;2.35;;;0.93;;
75620;SDS011;64574;48.506;-2.750;2023-05-08T07:28:55;1.65;;;0.80;;
75620;SDS011;64574;48.506;-2.750;2023-05-08T07:31:20;2.65;;;0.68;;
75620;SDS011;64574;48.506;-2.750;2023-05-08T07:33:46;2.10;;;0.85;;
75620;SDS011;64574;48.506;-2.750;2023-05-08T07:36:12;2.95;;;0.80;;
75620;SDS011;64574;48.506;-2.750;2023-05-08T07:38:38;2.13;;;0.80;;
75620;SDS011;64574;48.506;-2.750;2023-05-08T07:41:04;3.22;;;1.10;;
75620;SDS011;64574;48.506;-2.750;2023-05-08T07:43:30;1.25;;;0.75;;
75620;SDS011;64574;48.506;-2.750;2023-05-08T07:45:56;2.13;;;0.70;;
75620;SDS011;64574;48.506;-2.750;2023-05-08T07:48:22;1.67;;;0.65;;
75620;SDS011;64574;48.506;-2.750;2023-05-08T07:50:48;1.30;;;0.60;;
75620;SDS011;64574;48.506;-2.750;2023-05-08T07:53:15;1.60;;;0.80;;
75620;SDS011;64574;48.506;-2.750;2023-05-08T07:55:41;2.67;;;1.27;;
75620;SDS011;64574;48.506;-2.750;2023-05-08T07:58:06;2.63;;;0.60;;
75620;SDS011;64574;48.506;-2.750;2023-05-08T08:00:32;1.38;;;0.65;;
75620;SDS011;64574;48.506;-2.750;2023-05-08T08:02:58;1.65;;;0.73;;
75620;SDS011;64574;48.506;-2.750;2023-05-08T08:05:23;1.55;;;0.70;;
75620;SDS011;64574;48.506;-2.750;2023-05-08T08:07:49;1.88;;;0.70;;
75620;SDS011;64574;48.506;-2.750;2023-05-08T08:10:15;1.70;;;0.80;;
75620;SDS011;64574;48.506;-2.750;2023-05-08T08:12:41;1.48;;;0.82;;
75620;SDS011;64574;48.506;-2.750;2023-05-08T08:15:07;1.83;;;0.88;;
75620;SDS011;64574;48.506;-2.750;2023-05-08T08:17:33;4.22;;;1.42;;
75620;SDS011;64574;48.506;-2.750;2023-05-08T08:19:58;1.67;;;0.93;;
75620;SDS011;64574;48.506;-2.750;2023-05-08T08:22:24;2.22;;;1.17;;
75620;SDS011;64574;48.506;-2.750;2023-05-08T08:24:50;3.47;;;1.25;;
75620;SDS011;64574;48.506;-2.750;2023-05-08T08:27:16;3.08;;;1.10;;
75620;SDS011;64574;48.506;-2.750;2023-05-08T08:29:42;2.75;;;1.10;;
75620;SDS011;64574;48.506;-2.750;2023-05-08T08:32:07;2.05;;;1.20;;
75620;SDS011;64574;48.506;-2.750;2023-05-08T08:37:00;3.53;;;1.27;;
75620;SDS011;64574;48.506;-2.750;2023-05-08T08:39:25;3.33;;;1.58;;
75620;SDS011;64574;48.506;-2.750;2023-05-08T08:41:51;3.70;;;1.83;;
75620;SDS011;64574;48.506;-2.750;2023-05-08T08:44:17;6.30;;;1.60;;
75620;SDS011;64574;48.506;-2.750;2023-05-08T08:46:43;3.90;;;1.33;;
75620;SDS011;64574;48.506;-2.750;2023-05-08T08:49:21;3.58;;;1.55;;
75620;SDS011;64574;48.506;-2.750;2023-05-08T08:51:53;4.53;;;1.70;;
75620;SDS011;64574;48.506;-2.750;2023-05-08T08:54:23;3.42;;;1.50;;
75620;SDS011;64574;48.506;-2.750;2023-05-08T08:56:52;3.53;;;1.60;;
75620;SDS011;64574;48.506;-2.750;2023-05-08T08:59:19;3.17;;;1.13;;
75620;SDS011;64574;48.506;-2.750;2023-05-08T09:01:49;2.88;;;1.10;;
75620;SDS011;64574;48.506;-2.750;2023-05-08T09:04:18;2.67;;;1.35;;
75620;SDS011;64574;48.506;-2.750;2023-05-08T09:06:44;2.58;;;1.45;;
75620;SDS011;64574;48.506;-2.750;2023-05-08T09:09:10;2.95;;;1.45;;
75620;SDS011;64574;48.506;-2.750;2023-05-08T09:11:37;3.65;;;1.48;;
75620;SDS011;64574;48.506;-2.750;2023-05-08T09:14:05;6.80;;;1.38;;
75620;SDS011;64574;48.506;-2.750;2023-05-08T09:16:31;3.45;;;1.42;;
75620;SDS011;64574;48.506;-2.750;2023-05-08T09:18:56;3.35;;;0.90;;
75620;SDS011;64574;48.506;-2.750;2023-05-08T09:21:22;3.63;;;1.23;;
75620;SDS011;64574;48.506;-2.750;2023-05-08T09:23:58;2.92;;;1.05;;
75620;SDS011;64574;48.506;-2.750;2023-05-08T09:26:25;5.38;;;1.20;;
75620;SDS011;64574;48.506;-2.750;2023-05-08T09:29:15;2.38;;;1.00;;
75620;SDS011;64574;48.506;-2.750;2023-05-08T09:31:46;2.53;;;0.95;;
75620;SDS011;64574;48.506;-2.750;2023-05-08T09:37:16;2.90;;;0.90;;
75620;SDS011;64574;48.506;-2.750;2023-05-08T09:39:41;1.40;;;0.80;;
75620;SDS011;64574;48.506;-2.750;2023-05-08T09:42:07;5.75;;;1.30;;
75620;SDS011;64574;48.506;-2.750;2023-05-08T09:45:06;1.42;;;0.90;;
75620;SDS011;64574;48.506;-2.750;2023-05-08T09:47:25;2.28;;;1.10;;
75620;SDS011;64574;48.506;-2.750;2023-05-08T09:50:01;2.55;;;0.93;;
75620;SDS011;64574;48.506;-2.750;2023-05-08T09:52:29;2.20;;;0.82;;
75620;SDS011;64574;48.506;-2.750;2023-05-08T09:54:56;2.25;;;1.02;;
75620;SDS011;64574;48.506;-2.750;2023-05-08T09:57:34;2.63;;;1.00;;
75620;SDS011;64574;48.506;-2.750;2023-05-08T10:02:34;2.83;;;1.00;;
75620;SDS011;64574;48.506;-2.750;2023-05-08T10:05:01;2.15;;;1.10;;
75620;SDS011;64574;48.506;-2.750;2023-05-08T10:07:30;3.03;;;1.20;;
75620;SDS011;64574;48.506;-2.750;2023-05-08T10:09:57;1.80;;;1.10;;
75620;SDS011;64574;48.506;-2.750;2023-05-08T10:12:27;2.45;;;1.00;;
75620;SDS011;64574;48.506;-2.750;2023-05-08T10:14:53;4.28;;;1.10;;
75620;SDS011;64574;48.506;-2.750;2023-05-08T10:17:24;3.55;;;1.05;;
75620;SDS011;64574;48.506;-2.750;2023-05-08T10:19:54;3.15;;;0.90;;
75620;SDS011;64574;48.506;-2.750;2023-05-08T10:22:26;2.58;;;1.00;;
75620;SDS011;64574;48.506;-2.750;2023-05-08T10:24:56;3.03;;;1.10;;
75620;SDS011;64574;48.506;-2.750;2023-05-08T10:27:43;2.22;;;1.00;;
75620;SDS011;64574;48.506;-2.750;2023-05-08T10:30:12;2.85;;;1.05;;
75620;SDS011;64574;48.506;-2.750;2023-05-08T10:32:44;4.40;;;1.38;;
75620;SDS011;64574;48.506;-2.750;2023-05-08T10:35:13;2.10;;;1.08;;
75620;SDS011;64574;48.506;-2.750;2023-05-08T10:37:39;3.85;;;1.17;;
75620;SDS011;64574;48.506;-2.750;2023-05-08T10:40:06;2.72;;;1.00;;
75620;SDS011;64574;48.506;-2.750;2023-05-08T10:42:33;5.65;;;1.20;;
75620;SDS011;64574;48.506;-2.750;2023-05-08T10:45:01;2.08;;;1.00;;
75620;SDS011;64574;48.506;-2.750;2023-05-08T10:55:30;4.40;;;1.10;;
75620;SDS011;64574;48.506;-2.750;2023-05-08T10:58:14;2.90;;;1.10;;
75620;SDS011;64574;48.506;-2.750;2023-05-08T11:05:47;2.00;;;0.90;;
75620;SDS011;64574;48.506;-2.750;2023-05-08T11:08:14;2.97;;;1.13;;
75620;SDS011;64574;48.506;-2.750;2023-05-08T11:24:37;2.17;;;0.75;;
75620;SDS011;64574;48.506;-2.750;2023-05-08T11:27:04;2.13;;;0.80;;
75620;SDS011;64574;48.506;-2.750;2023-05-08T11:29:30;2.53;;;0.60;;
75620;SDS011;64574;48.506;-2.750;2023-05-08T11:31:56;2.67;;;1.05;;
75620;SDS011;64574;48.506;-2.750;2023-05-08T11:37:09;3.72;;;1.10;;
75620;SDS011;64574;48.506;-2.750;2023-05-08T11:39:41;3.75;;;0.93;;
75620;SDS011;64574;48.506;-2.750;2023-05-08T11:47:43;2.67;;;0.90;;
75620;SDS011;64574;48.506;-2.750;2023-05-08T11:50:10;3.53;;;1.08;;
75620;SDS011;64574;48.506;-2.750;2023-05-08T11:52:37;9.07;;;1.73;;
75620;SDS011;64574;48.506;-2.750;2023-05-08T11:55:05;2.55;;;0.98;;
75620;SDS011;64574;48.506;-2.750;2023-05-08T11:57:35;5.32;;;1.05;;
75620;SDS011;64574;48.506;-2.750;2023-05-08T12:02:49;2.00;;;0.65;;
75620;SDS011;64574;48.506;-2.750;2023-05-08T12:05:14;3.90;;;0.90;;
75620;SDS011;64574;48.506;-2.750;2023-05-08T12:07:51;2.67;;;0.88;;
75620;SDS011;64574;48.506;-2.750;2023-05-08T12:10:16;3.28;;;0.90;;
75620;SDS011;64574;48.506;-2.750;2023-05-08T12:12:42;4.18;;;0.95;;
75620;SDS011;64574;48.506;-2.750;2023-05-08T12:15:09;2.92;;;1.00;;
75620;SDS011;64574;48.506;-2.750;2023-05-08T12:17:36;3.35;;;0.90;;
75620;SDS011;64574;48.506;-2.750;2023-05-08T12:20:15;1.50;;;0.82;;
75620;SDS011;64574;48.506;-2.750;2023-05-08T12:22:42;4.32;;;0.95;;
75620;SDS011;64574;48.506;-2.750;2023-05-08T12:25:15;2.95;;;1.00;;
75620;SDS011;64574;48.506;-2.750;2023-05-08T12:27:42;3.35;;;0.95;;
75620;SDS011;64574;48.506;-2.750;2023-05-08T12:30:09;0.95;;;0.60;;
75620;SDS011;64574;48.506;-2.750;2023-05-08T12:32:38;3.40;;;0.70;;
75620;SDS011;64574;48.506;-2.750;2023-05-08T12:35:05;1.33;;;0.55;;
75620;SDS011;64574;48.506;-2.750;2023-05-08T12:37:35;0.65;;;0.50;;
75620;SDS011;64574;48.506;-2.750;2023-05-08T12:40:01;1.13;;;0.50;;
75620;SDS011;64574;48.506;-2.750;2023-05-08T12:42:49;1.20;;;0.40;;
75620;SDS011;64574;48.506;-2.750;2023-05-08T12:45:21;3.90;;;0.70;;
75620;SDS011;64574;48.506;-2.750;2023-05-08T12:47:49;1.80;;;0.55;;
75620;SDS011;64574;48.506;-2.750;2023-05-08T12:50:15;1.00;;;0.55;;
75620;SDS011;64574;48.506;-2.750;2023-05-08T12:55:24;1.33;;;0.45;;
75620;SDS011;64574;48.506;-2.750;2023-05-08T13:00:51;0.60;;;0.40;;
75620;SDS011;64574;48.506;-2.750;2023-05-08T13:05:51;1.63;;;0.38;;
75620;SDS011;64574;48.506;-2.750;2023-05-08T13:08:18;0.47;;;0.30;;
75620;SDS011;64574;48.506;-2.750;2023-05-08T13:10:45;0.60;;;0.40;;
75620;SDS011;64574;48.506;-2.750;2023-05-08T13:13:14;0.90;;;0.30;;
75620;SDS011;64574;48.506;-2.750;2023-05-08T13:15:45;0.73;;;0.30;;
75620;SDS011;64574;48.506;-2.750;2023-05-08T13:18:11;0.57;;;0.20;;
75620;SDS011;64574;48.506;-2.750;2023-05-08T13:20:36;0.43;;;0.30;;
75620;SDS011;64574;48.506;-2.750;2023-05-08T13:23:03;1.20;;;0.30;;
75620;SDS011;64574;48.506;-2.750;2023-05-08T13:25:29;3.55;;;0.50;;
75620;SDS011;64574;48.506;-2.750;2023-05-08T13:27:56;0.57;;;0.40;;
75620;SDS011;64574;48.506;-2.750;2023-05-08T13:30:22;1.45;;;0.30;;
75620;SDS011;64574;48.506;-2.750;2023-05-08T13:32:49;1.83;;;0.38;;
75620;SDS011;64574;48.506;-2.750;2023-05-08T13:35:14;1.02;;;0.63;;
75620;SDS011;64574;48.506;-2.750;2023-05-08T13:37:41;1.08;;;0.40;;
75620;SDS011;64574;48.506;-2.750;2023-05-08T13:40:07;1.25;;;0.47;;
75620;SDS011;64574;48.506;-2.750;2023-05-08T13:42:33;2.03;;;0.57;;
75620;SDS011;64574;48.506;-2.750;2023-05-08T13:44:58;0.80;;;0.30;;
75620;SDS011;64574;48.506;-2.750;2023-05-08T13:47:24;2.95;;;0.57;;
75620;SDS011;64574;48.506;-2.750;2023-05-08T13:49:50;1.63;;;0.43;;
75620;SDS011;64574;48.506;-2.750;2023-05-08T13:52:16;3.47;;;0.80;;
75620;SDS011;64574;48.506;-2.750;2023-05-08T13:54:41;1.70;;;0.60;;
75620;SDS011;64574;48.506;-2.750;2023-05-08T13:57:07;1.73;;;0.60;;
75620;SDS011;64574;48.506;-2.750;2023-05-08T13:59:33;3.25;;;0.80;;
75620;SDS011;64574;48.506;-2.750;2023-05-08T14:02:02;3.35;;;0.80;;
75620;SDS011;64574;48.506;-2.750;2023-05-08T14:04:28;2.25;;;0.75;;
75620;SDS011;64574;48.506;-2.750;2023-05-08T14:06:53;1.00;;;0.47;;
75620;SDS011;64574;48.506;-2.750;2023-05-08T14:09:19;2.63;;;0.68;;
75620;SDS011;64574;48.506;-2.750;2023-05-08T14:11:44;3.08;;;0.60;;
75620;SDS011;64574;48.506;-2.750;2023-05-08T14:14:10;2.50;;;0.90;;
75620;SDS011;64574;48.506;-2.750;2023-05-08T14:16:36;4.75;;;0.90;;
75620;SDS011;64574;48.506;-2.750;2023-05-08T14:19:01;4.90;;;0.70;;
75620;SDS011;64574;48.506;-2.750;2023-05-08T14:21:27;1.83;;;0.60;;
75620;SDS011;64574;48.506;-2.750;2023-05-08T14:23:52;1.63;;;0.77;;
75620;SDS011;64574;48.506;-2.750;2023-05-08T14:26:19;2.60;;;0.85;;
75620;SDS011;64574;48.506;-2.750;2023-05-08T14:28:45;2.55;;;0.63;;
75620;SDS011;64574;48.506;-2.750;2023-05-08T14:31:11;2.85;;;0.60;;
75620;SDS011;64574;48.506;-2.750;2023-05-08T14:33:36;3.38;;;0.70;;
75620;SDS011;64574;48.506;-2.750;2023-05-08T14:36:02;2.05;;;0.75;;
75620;SDS011;64574;48.506;-2.750;2023-05-08T14:38:27;2.90;;;0.88;;
75620;SDS011;64574;48.506;-2.750;2023-05-08T14:40:53;2.67;;;0.75;;
75620;SDS011;64574;48.506;-2.750;2023-05-08T14:43:19;4.68;;;0.93;;
75620;SDS011;64574;48.506;-2.750;2023-05-08T14:45:45;3.60;;;0.77;;
75620;SDS011;64574;48.506;-2.750;2023-05-08T14:48:11;2.20;;;0.43;;
75620;SDS011;64574;48.506;-2.750;2023-05-08T14:50:37;1.20;;;0.40;;
75620;SDS011;64574;48.506;-2.750;2023-05-08T14:53:02;3.38;;;0.60;;
75620;SDS011;64574;48.506;-2.750;2023-05-08T14:55:28;0.63;;;0.30;;
75620;SDS011;64574;48.506;-2.750;2023-05-08T14:57:54;2.38;;;0.60;;
75620;SDS011;64574;48.506;-2.750;2023-05-08T15:00:20;2.45;;;0.50;;
75620;SDS011;64574;48.506;-2.750;2023-05-08T15:02:46;2.42;;;0.50;;
75620;SDS011;64574;48.506;-2.750;2023-05-08T15:05:12;2.72;;;0.50;;
75620;SDS011;64574;48.506;-2.750;2023-05-08T15:07:38;2.28;;;0.57;;
75620;SDS011;64574;48.506;-2.750;2023-05-08T15:10:04;2.88;;;0.47;;
75620;SDS011;64574;48.506;-2.750;2023-05-08T15:12:30;1.85;;;0.40;;
75620;SDS011;64574;48.506;-2.750;2023-05-08T15:14:56;0.60;;;0.38;;
75620;SDS011;64574;48.506;-2.750;2023-05-08T15:17:22;1.67;;;0.40;;
75620;SDS011;64574;48.506;-2.750;2023-05-08T15:19:48;1.65;;;0.50;;
75620;SDS011;64574;48.506;-2.750;2023-05-08T15:22:13;1.65;;;0.50;;
75620;SDS011;64574;48.506;-2.750;2023-05-08T15:24:39;1.38;;;0.40;;
75620;SDS011;64574;48.506;-2.750;2023-05-08T15:27:05;2.00;;;0.40;;
75620;SDS011;64574;48.506;-2.750;2023-05-08T15:29:31;1.38;;;0.30;;
75620;SDS011;64574;48.506;-2.750;2023-05-08T15:31:56;0.82;;;0.30;;
75620;SDS011;64574;48.506;-2.750;2023-05-08T15:34:22;1.20;;;0.65;;
75620;SDS011;64574;48.506;-2.750;2023-05-08T15:36:48;0.75;;;0.38;;
75620;SDS011;64574;48.506;-2.750;2023-05-08T15:39:14;0.95;;;0.20;;
75620;SDS011;64574;48.506;-2.750;2023-05-08T15:41:39;0.30;;;0.20;;
75620;SDS011;64574;48.506;-2.750;2023-05-08T15:44:08;0.63;;;0.38;;
75620;SDS011;64574;48.506;-2.750;2023-05-08T15:46:34;0.45;;;0.30;;
75620;SDS011;64574;48.506;-2.750;2023-05-08T15:48:59;0.82;;;0.30;;
75620;SDS011;64574;48.506;-2.750;2023-05-08T15:51:25;1.23;;;0.38;;
75620;SDS011;64574;48.506;-2.750;2023-05-08T15:53:50;0.80;;;0.30;;
75620;SDS011;64574;48.506;-2.750;2023-05-08T15:56:17;0.40;;;0.40;;